Time;durP1;ratioP1;P1;durP2;ratioP2;P2;SDS_P1;SDS_P2;PMS_P1;PMS_P2;Temp;Humidity;BMP_temperature;BMP_pressure;BME280_temperature;BME280_humidity;BME280_pressure;Samples;Min_cycle;Max_cycle;Signal;HPM_P1;HPM_P2
2021/01/09 00:01:07;;;;;;;0.98;0.70;;;13.60;65.90;;;;;;5051436;28;20039;-72
2021/01/09 00:03:37;;;;;;;0.47;0.47;;;13.60;65.90;;;;;;5044045;28;20021;-72
2021/01/09 00:06:03;;;;;;;1.65;0.88;;;13.60;65.90;;;;;;5036310;28;20124;-72
2021/01/09 00:08:28;;;;;;;0.95;0.88;;;13.60;65.90;;;;;;5052402;28;20121;-72
2021/01/09 00:10:54;;;;;;;0.90;0.80;;;13.60;65.90;;;;;;5051749;28;20074;-73
2021/01/09 00:13:20;;;;;;;1.15;0.85;;;13.60;65.90;;;;;;5046850;28;21319;-73
2021/01/09 00:15:46;;;;;;;0.75;0.68;;;13.60;65.90;;;;;;5051408;28;20036;-75
2021/01/09 00:18:16;;;;;;;1.05;0.80;;;13.70;65.90;;;;;;5034892;28;20120;-73
2021/01/09 00:20:42;;;;;;;0.60;0.60;;;13.60;65.80;;;;;;5025694;28;20043;-73
2021/01/09 00:23:07;;;;;;;0.80;0.70;;;13.60;65.90;;;;;;5048183;28;20020;-73
2021/01/09 00:25:33;;;;;;;1.13;0.90;;;13.60;65.90;;;;;;5047924;28;20021;-73
2021/01/09 00:27:59;;;;;;;0.60;0.55;;;13.60;65.90;;;;;;5052186;28;20150;-73
2021/01/09 00:30:29;;;;;;;1.00;0.65;;;13.60;65.90;;;;;;5032677;28;20479;-74
2021/01/09 00:33:00;;;;;;;0.68;0.68;;;13.60;65.90;;;;;;5045023;28;20434;-73
2021/01/09 00:35:26;;;;;;;0.70;0.70;;;13.60;65.90;;;;;;5051268;28;20025;-73
2021/01/09 00:37:51;;;;;;;1.15;0.65;;;13.60;65.90;;;;;;5050593;28;20059;-73
2021/01/09 00:40:17;;;;;;;0.80;0.80;;;13.60;65.90;;;;;;5053429;28;20467;-73
2021/01/09 00:42:49;;;;;;;0.68;0.60;;;13.70;65.90;;;;;;5052175;28;20092;-74
2021/01/09 00:45:15;;;;;;;0.85;0.70;;;13.60;65.90;;;;;;5052179;28;20028;-73
2021/01/09 00:47:45;;;;;;;1.65;0.80;;;13.60;65.90;;;;;;5030428;28;20036;-73
2021/01/09 00:50:11;;;;;;;1.63;0.88;;;13.60;65.90;;;;;;5051598;28;20060;-73
2021/01/09 00:52:42;;;;;;;1.45;1.08;;;13.60;65.90;;;;;;5048882;28;20028;-73
2021/01/09 00:55:12;;;;;;;0.70;0.70;;;13.60;65.90;;;;;;5052017;28;20025;-73
2021/01/09 00:57:37;;;;;;;0.80;0.80;;;13.60;65.90;;;;;;5049283;28;20036;-73
2021/01/09 01:00:05;;;;;;;0.77;0.70;;;13.60;65.90;;;;;;5043637;28;20033;-73
2021/01/09 01:02:30;;;;;;;0.70;0.63;;;13.60;65.90;;;;;;5051761;28;20104;-73
2021/01/09 01:04:59;;;;;;;0.85;0.73;;;13.60;65.90;;;;;;5049526;28;20447;-73
2021/01/09 01:07:25;;;;;;;0.70;0.68;;;13.60;65.90;;;;;;5028129;28;20029;-73
2021/01/09 01:09:50;;;;;;;1.10;0.85;;;13.60;65.90;;;;;;5041532;28;20060;-73
2021/01/09 01:12:16;;;;;;;1.30;0.80;;;13.60;65.90;;;;;;5051568;28;20028;-73
2021/01/09 01:14:42;;;;;;;0.80;0.80;;;13.60;65.90;;;;;;5048444;28;20033;-73
2021/01/09 01:17:10;;;;;;;1.02;0.73;;;13.60;65.90;;;;;;5034374;28;20095;-73
2021/01/09 01:19:42;;;;;;;1.10;0.85;;;13.60;65.90;;;;;;5026814;28;20029;-73
2021/01/09 01:22:07;;;;;;;0.90;0.80;;;13.60;65.90;;;;;;5040227;28;20065;-72
2021/01/09 01:24:33;;;;;;;0.77;0.77;;;13.60;65.90;;;;;;5027707;28;20057;-73
2021/01/09 01:26:59;;;;;;;1.25;0.70;;;13.60;65.90;;;;;;5041057;28;20029;-72
2021/01/09 01:29:25;;;;;;;1.40;0.75;;;13.70;65.90;;;;;;5052613;28;20501;-72
2021/01/09 01:31:50;;;;;;;0.47;0.47;;;13.50;65.90;;;;;;5050840;28;20052;-73
2021/01/09 01:34:16;;;;;;;0.63;0.50;;;13.60;65.90;;;;;;5030951;28;20026;-73
2021/01/09 01:36:47;;;;;;;0.70;0.70;;;13.60;65.90;;;;;;5047800;28;20032;-73
2021/01/09 01:39:13;;;;;;;0.60;0.60;;;13.60;65.90;;;;;;5036856;28;20025;-73
2021/01/09 01:41:39;;;;;;;0.70;0.70;;;13.60;65.90;;;;;;5049502;28;20041;-73
2021/01/09 01:44:05;;;;;;;0.88;0.80;;;13.60;65.90;;;;;;5051574;28;20036;-73
2021/01/09 01:46:30;;;;;;;0.82;0.80;;;13.60;65.90;;;;;;5038781;28;20036;-73
2021/01/09 01:48:56;;;;;;;1.25;0.93;;;13.60;65.90;;;;;;5050754;28;20036;-73
2021/01/09 01:51:22;;;;;;;3.08;1.85;;;13.60;65.90;;;;;;5033818;28;20033;-73
2021/01/09 01:53:54;;;;;;;0.95;0.80;;;13.60;65.90;;;;;;5048314;28;20029;-73
2021/01/09 01:56:24;;;;;;;0.82;0.77;;;13.60;65.90;;;;;;5028666;28;20391;-73
2021/01/09 01:58:50;;;;;;;0.82;0.68;;;13.60;65.90;;;;;;5025756;28;20025;-73
2021/01/09 02:01:16;;;;;;;1.00;0.73;;;13.60;65.90;;;;;;5048991;28;20111;-73
2021/01/09 02:03:42;;;;;;;1.40;0.75;;;13.60;65.90;;;;;;5045588;28;20355;-73
2021/01/09 02:06:17;;;;;;;1.10;0.90;;;13.60;65.90;;;;;;5050096;28;20033;-73
2021/01/09 02:08:49;;;;;;;0.98;0.77;;;13.60;65.90;;;;;;5020203;28;20708;-73
2021/01/09 02:11:31;;;;;;;0.50;0.50;;;13.60;65.90;;;;;;5031478;28;20083;-75
2021/01/09 02:14:04;;;;;;;0.93;0.75;;;13.60;65.90;;;;;;5054930;28;20036;-73
2021/01/09 02:16:31;;;;;;;0.77;0.75;;;13.60;65.90;;;;;;5048137;28;20470;-73
2021/01/09 02:18:59;;;;;;;1.00;0.73;;;13.60;65.90;;;;;;5049569;28;20028;-72
2021/01/09 02:21:34;;;;;;;1.00;0.70;;;13.60;65.90;;;;;;5043930;28;20489;-73
2021/01/09 02:24:12;;;;;;;0.43;0.43;;;13.60;65.90;;;;;;5036795;28;20045;-73
2021/01/09 02:26:38;;;;;;;0.98;0.80;;;13.60;65.90;;;;;;5033561;28;20033;-75
2021/01/09 02:29:08;;;;;;;0.65;0.65;;;13.60;66.00;;;;;;5043460;28;20025;-73
2021/01/09 02:31:44;;;;;;;0.65;0.60;;;13.60;65.90;;;;;;5029763;28;20071;-73
2021/01/09 02:34:14;;;;;;;1.08;0.90;;;13.60;65.90;;;;;;5047154;28;20134;-73
2021/01/09 02:36:43;;;;;;;1.00;0.82;;;13.60;65.90;;;;;;5049302;28;20032;-73
2021/01/09 02:39:09;;;;;;;0.70;0.70;;;13.60;65.90;;;;;;5026574;28;20032;-73
2021/01/09 02:41:36;;;;;;;0.85;0.80;;;13.60;65.90;;;;;;5048076;28;20041;-72
2021/01/09 02:44:10;;;;;;;0.73;0.73;;;13.60;66.00;;;;;;5052131;28;20481;-73
2021/01/09 02:46:40;;;;;;;1.13;0.88;;;13.60;65.90;;;;;;5045693;28;20465;-73
2021/01/09 02:49:06;;;;;;;1.17;0.98;;;13.60;65.90;;;;;;5048895;28;20474;-73
2021/01/09 02:51:35;;;;;;;0.80;0.68;;;13.60;65.90;;;;;;5048930;28;20032;-72
2021/01/09 02:54:02;;;;;;;0.75;0.73;;;13.60;65.90;;;;;;5034606;28;20426;-73
2021/01/09 02:56:32;;;;;;;0.70;0.70;;;13.60;65.90;;;;;;5033645;28;20025;-73
2021/01/09 02:58:58;;;;;;;1.30;0.80;;;13.60;65.90;;;;;;5050040;28;20466;-73
2021/01/09 03:01:31;;;;;;;0.93;0.77;;;13.60;65.90;;;;;;5053135;28;20033;-73
2021/01/09 03:04:02;;;;;;;0.95;0.80;;;13.60;65.90;;;;;;5050569;28;20029;-73
2021/01/09 03:06:27;;;;;;;1.45;1.00;;;13.60;65.90;;;;;;5053766;28;20017;-73
2021/01/09 03:08:56;;;;;;;0.70;0.55;;;13.60;65.90;;;;;;5051675;28;20047;-73
2021/01/09 03:11:24;;;;;;;0.50;0.50;;;13.60;66.00;;;;;;5027706;28;20040;-74
2021/01/09 03:13:55;;;;;;;;;;;13.50;65.90;;;;;;5030553;28;20057;-73
2021/01/09 03:16:21;;;;;;;0.90;0.80;;;13.60;65.90;;;;;;5045505;28;19913;-73
2021/01/09 03:18:46;;;;;;;0.70;0.60;;;13.60;66.00;;;;;;5054173;28;20029;-73
2021/01/09 03:21:12;;;;;;;0.70;0.60;;;13.50;65.90;;;;;;5027739;28;20041;-73
2021/01/09 03:23:40;;;;;;;1.02;0.85;;;13.50;65.90;;;;;;5051275;28;20036;-73
2021/01/09 03:26:06;;;;;;;1.13;0.77;;;13.60;65.90;;;;;;5037346;28;20116;-73
2021/01/09 03:28:36;;;;;;;1.60;0.88;;;13.60;65.90;;;;;;5044648;28;20120;-73
2021/01/09 03:31:02;;;;;;;0.52;0.43;;;13.60;65.90;;;;;;5049878;28;20460;-73
2021/01/09 03:33:32;;;;;;;1.10;0.70;;;13.60;65.90;;;;;;5029290;28;20029;-74
2021/01/09 03:35:58;;;;;;;1.00;0.90;;;13.60;66.00;;;;;;5052080;28;20036;-73
2021/01/09 03:38:23;;;;;;;0.80;0.65;;;13.60;66.00;;;;;;5034296;28;20029;-73
2021/01/09 03:40:49;;;;;;;0.52;0.50;;;13.60;65.90;;;;;;5051651;28;20059;-73
2021/01/09 03:43:16;;;;;;;1.30;0.80;;;13.60;66.00;;;;;;5053758;28;20040;-73
2021/01/09 03:45:45;;;;;;;0.70;0.65;;;13.60;66.00;;;;;;5049521;28;20029;-73
2021/01/09 03:48:10;;;;;;;;;;;13.50;66.00;;;;;;5035839;28;20032;-73
2021/01/09 03:50:48;;;;;;;1.80;1.00;;;13.60;66.00;;;;;;5053649;28;19909;-73
2021/01/09 03:53:19;;;;;;;;;;;13.60;65.90;;;;;;5049441;28;20021;-73
2021/01/09 03:55:58;;;;;;;0.75;0.70;;;13.60;65.90;;;;;;5034410;28;19912;-73
2021/01/09 03:58:29;;;;;;;0.95;0.80;;;13.60;65.90;;;;;;5032394;28;20061;-73
2021/01/09 04:00:54;;;;;;;1.83;0.90;;;13.50;66.00;;;;;;5052190;28;20071;-72
2021/01/09 04:03:20;;;;;;;1.00;0.75;;;13.50;66.00;;;;;;5053833;28;20041;-73
2021/01/09 04:05:45;;;;;;;1.67;0.90;;;13.50;66.00;;;;;;5051759;28;20078;-73
2021/01/09 04:08:11;;;;;;;0.60;0.60;;;13.50;66.00;;;;;;5033542;28;20033;-73
2021/01/09 04:10:37;;;;;;;1.33;0.65;;;13.50;66.00;;;;;;5031281;28;20040;-72
2021/01/09 04:13:03;;;;;;;0.45;0.40;;;13.50;65.90;;;;;;5046752;28;20028;-72
2021/01/09 04:15:33;;;;;;;1.15;0.63;;;13.50;66.00;;;;;;5048821;28;20482;-72
2021/01/09 04:17:58;;;;;;;0.80;0.70;;;13.50;65.90;;;;;;5049113;28;20021;-72
2021/01/09 04:20:29;;;;;;;1.10;1.00;;;13.50;65.90;;;;;;5051929;28;20094;-73
2021/01/09 04:22:55;;;;;;;0.70;0.57;;;13.50;65.90;;;;;;5047922;28;20128;-72
2021/01/09 04:25:20;;;;;;;0.80;0.80;;;13.50;65.90;;;;;;5053003;28;20529;-72
2021/01/09 04:27:46;;;;;;;0.65;0.57;;;13.60;65.90;;;;;;5048647;28;20469;-72
2021/01/09 04:30:13;;;;;;;0.98;0.70;;;13.60;65.90;;;;;;5035221;28;20083;-72
2021/01/09 04:32:38;;;;;;;0.57;0.57;;;13.50;65.90;;;;;;5031774;28;20028;-72
2021/01/09 04:35:06;;;;;;;0.50;0.50;;;13.60;65.90;;;;;;5052719;28;20029;-72
2021/01/09 04:37:32;;;;;;;0.63;0.60;;;13.50;65.90;;;;;;5050380;28;20032;-72
2021/01/09 04:40:05;;;;;;;0.73;0.60;;;13.50;65.90;;;;;;5053298;28;20115;-72
2021/01/09 04:42:43;;;;;;;1.15;0.77;;;13.60;65.90;;;;;;5047241;28;20052;-72
2021/01/09 04:45:10;;;;;;;0.93;0.88;;;13.50;65.90;;;;;;5046403;28;20029;-72
2021/01/09 04:47:40;;;;;;;0.88;0.68;;;13.60;66.00;;;;;;5051159;28;20029;-72
2021/01/09 04:50:07;;;;;;;0.52;0.47;;;13.60;66.00;;;;;;5051830;28;20033;-72
2021/01/09 04:52:35;;;;;;;0.90;0.57;;;13.50;66.00;;;;;;5041681;28;20026;-72
2021/01/09 04:55:01;;;;;;;0.60;0.55;;;13.50;66.00;;;;;;5049778;28;20046;-72
2021/01/09 04:57:33;;;;;;;0.60;0.60;;;13.50;66.00;;;;;;5050687;28;20409;-72
2021/01/09 04:59:59;;;;;;;0.60;0.60;;;13.50;66.00;;;;;;5048981;28;20066;-72
2021/01/09 05:02:26;;;;;;;0.68;0.60;;;13.50;65.90;;;;;;5050736;28;20378;-73
2021/01/09 05:04:56;;;;;;;1.02;0.80;;;13.60;66.00;;;;;;5031421;28;20386;-72
2021/01/09 05:07:26;;;;;;;1.42;0.75;;;13.60;66.00;;;;;;5029852;28;20053;-72
2021/01/09 05:10:04;;;;;;;0.70;0.60;;;13.50;66.00;;;;;;5019541;28;20049;-73
2021/01/09 05:12:34;;;;;;;1.00;0.82;;;13.50;66.00;;;;;;5039579;28;20052;-73
2021/01/09 05:15:06;;;;;;;0.60;0.60;;;13.50;66.00;;;;;;5031731;28;20413;-73
2021/01/09 05:17:34;;;;;;;0.70;0.63;;;13.50;66.00;;;;;;5031499;28;20025;-73
2021/01/09 05:20:04;;;;;;;0.63;0.60;;;13.50;66.00;;;;;;5051078;28;20037;-72
2021/01/09 05:22:34;;;;;;;0.80;0.60;;;13.50;66.00;;;;;;5040697;28;20124;-72
2021/01/09 05:25:00;;;;;;;0.93;0.70;;;13.50;66.00;;;;;;5050796;28;20100;-73
2021/01/09 05:27:27;;;;;;;0.82;0.60;;;13.50;66.00;;;;;;5038118;28;20080;-72
2021/01/09 05:29:56;;;;;;;0.60;0.60;;;13.50;66.00;;;;;;5028665;28;20033;-73
2021/01/09 05:32:23;;;;;;;0.75;0.57;;;13.50;66.00;;;;;;5019202;28;20406;-73
2021/01/09 05:34:51;;;;;;;0.80;0.75;;;13.50;66.00;;;;;;5044134;28;20036;-73
2021/01/09 05:37:18;;;;;;;;;;;13.50;66.00;;;;;;5035611;28;20033;-73
2021/01/09 05:39:54;;;;;;;1.10;0.70;;;13.60;66.00;;;;;;5052272;28;19908;-74
2021/01/09 05:42:27;;;;;;;0.60;0.60;;;13.50;66.00;;;;;;5032685;28;20035;-73
2021/01/09 05:44:58;;;;;;;0.50;0.50;;;13.60;66.00;;;;;;5034639;28;20049;-73
2021/01/09 05:47:26;;;;;;;0.82;0.63;;;13.50;66.00;;;;;;5032879;28;20039;-73
2021/01/09 05:49:55;;;;;;;1.27;0.80;;;13.50;66.00;;;;;;5060095;28;20494;-73
2021/01/09 05:52:28;;;;;;;0.73;0.63;;;13.60;66.00;;;;;;5049813;28;20072;-73
2021/01/09 05:54:58;;;;;;;0.98;0.65;;;13.50;66.00;;;;;;5028072;28;20113;-74
2021/01/09 05:57:29;;;;;;;0.82;0.70;;;13.60;66.00;;;;;;5033411;28;20052;-75
2021/01/09 06:00:04;;;;;;;1.05;0.80;;;13.50;66.00;;;;;;5051932;28;20033;-72
2021/01/09 06:02:46;;;;;;;0.55;0.55;;;13.50;66.00;;;;;;5024706;28;20033;-72
2021/01/09 06:05:14;;;;;;;1.42;0.88;;;13.60;66.00;;;;;;5048422;28;20029;-73
2021/01/09 06:07:44;;;;;;;0.75;0.75;;;13.60;66.00;;;;;;5030919;28;20078;-73
2021/01/09 06:10:15;;;;;;;1.33;0.52;;;13.50;66.00;;;;;;5044198;28;20045;-72
2021/01/09 06:13:00;;;;;;;2.08;0.65;;;13.50;66.00;;;;;;5029089;28;20052;-72
2021/01/09 06:15:29;;;;;;;0.85;0.70;;;13.50;66.00;;;;;;5016094;28;20091;-73
2021/01/09 06:17:56;;;;;;;0.68;0.65;;;13.50;66.00;;;;;;5051663;28;20029;-73
2021/01/09 06:20:22;;;;;;;0.50;0.50;;;13.50;66.00;;;;;;5033518;28;20505;-74
2021/01/09 06:22:49;;;;;;;0.95;0.80;;;13.60;65.90;;;;;;5051825;28;20063;-73
2021/01/09 06:25:15;;;;;;;0.60;0.55;;;13.50;66.00;;;;;;5034895;28;20026;-73
2021/01/09 06:27:52;;;;;;;1.00;0.80;;;13.60;66.00;;;;;;5034149;28;20400;-72
2021/01/09 06:30:20;;;;;;;0.40;0.40;;;13.50;66.00;;;;;;5055395;28;20075;-73
2021/01/09 06:32:55;;;;;;;1.00;0.70;;;13.50;66.00;;;;;;5053308;28;20029;-72
2021/01/09 06:35:21;;;;;;;0.82;0.73;;;13.50;65.90;;;;;;5051032;28;20040;-72
2021/01/09 06:37:54;;;;;;;0.98;0.80;;;13.60;66.00;;;;;;5037271;28;20033;-73
2021/01/09 06:40:21;;;;;;;0.60;0.60;;;13.50;66.00;;;;;;5036722;28;20479;-73
2021/01/09 06:42:54;;;;;;;0.80;0.68;;;13.50;66.00;;;;;;5036690;28;20078;-73
2021/01/09 06:45:20;;;;;;;0.60;0.60;;;13.50;66.00;;;;;;5036876;28;20029;-73
2021/01/09 06:47:58;;;;;;;0.95;0.77;;;13.50;66.00;;;;;;5042633;28;20533;-72
2021/01/09 06:50:30;;;;;;;0.57;0.50;;;13.50;66.00;;;;;;5039505;28;20492;-73
2021/01/09 06:53:01;;;;;;;0.60;0.60;;;13.50;66.00;;;;;;5033871;28;20032;-73
2021/01/09 06:55:36;;;;;;;0.55;0.52;;;13.50;66.00;;;;;;5032597;28;20547;-73
2021/01/09 06:58:15;;;;;;;0.68;0.60;;;13.50;66.00;;;;;;5044158;28;20021;-73
2021/01/09 07:00:46;;;;;;;0.73;0.52;;;13.50;66.00;;;;;;5036927;28;20090;-73
2021/01/09 07:03:16;;;;;;;0.70;0.70;;;13.60;66.00;;;;;;5046865;28;20025;-72
2021/01/09 07:05:43;;;;;;;0.77;0.60;;;13.50;66.00;;;;;;5036163;28;20032;-72
2021/01/09 07:08:17;;;;;;;0.70;0.70;;;13.50;66.00;;;;;;5034517;28;20025;-73
2021/01/09 07:10:46;;;;;;;1.08;0.80;;;13.50;66.00;;;;;;5042750;28;20029;-73
2021/01/09 07:13:15;;;;;;;0.60;0.60;;;13.50;66.00;;;;;;5052818;28;20029;-73
2021/01/09 07:15:41;;;;;;;0.60;0.60;;;13.50;66.00;;;;;;5052990;28;20465;-73
2021/01/09 07:18:08;;;;;;;0.60;0.60;;;13.50;66.00;;;;;;5046640;28;20028;-73
2021/01/09 07:20:44;;;;;;;0.82;0.65;;;13.50;66.00;;;;;;5033815;28;20044;-73
2021/01/09 07:23:17;;;;;;;1.00;0.52;;;13.50;66.00;;;;;;5042789;28;20112;-73
2021/01/09 07:25:47;;;;;;;1.33;0.70;;;13.50;66.00;;;;;;5035731;28;20017;-73
2021/01/09 07:28:12;;;;;;;1.00;0.57;;;13.50;65.90;;;;;;5041979;28;20028;-72
2021/01/09 07:30:43;;;;;;;0.47;0.47;;;13.50;66.00;;;;;;5035756;28;20033;-73
2021/01/09 07:33:12;;;;;;;0.47;0.47;;;13.50;65.90;;;;;;5032774;28;20029;-72
2021/01/09 07:35:43;;;;;;;0.80;0.70;;;13.60;65.90;;;;;;5033007;28;20025;-73
2021/01/09 07:38:10;;;;;;;1.33;0.60;;;13.60;65.90;;;;;;5035907;28;20080;-73
2021/01/09 07:40:45;;;;;;;0.82;0.65;;;13.60;65.90;;;;;;5030479;28;20128;-73
2021/01/09 07:43:35;;;;;;;1.13;0.80;;;13.60;65.90;;;;;;5029910;28;20056;-73
2021/01/09 07:46:34;;;;;;;0.77;0.52;;;13.60;65.90;;;;;;5038230;28;20028;-74
2021/01/09 07:49:02;;;;;;;0.77;0.50;;;13.60;65.80;;;;;;5006695;28;20053;-73
2021/01/09 07:51:50;;;;;;;0.55;0.55;;;13.60;65.80;;;;;;5049891;28;20039;-74
2021/01/09 07:54:38;;;;;;;0.75;0.75;;;13.60;65.80;;;;;;5049995;28;20383;-75
2021/01/09 07:57:19;;;;;;;0.93;0.75;;;13.60;65.80;;;;;;5049777;28;20048;-74
2021/01/09 07:59:55;;;;;;;0.80;0.60;;;13.60;65.80;;;;;;5051666;28;20455;-74
2021/01/09 08:02:37;;;;;;;0.75;0.70;;;13.60;65.80;;;;;;5035732;28;20110;-73
2021/01/09 08:05:10;;;;;;;1.08;0.77;;;13.60;65.80;;;;;;5052535;28;20032;-73
2021/01/09 08:07:56;;;;;;;0.80;0.60;;;13.60;65.80;;;;;;5031599;28;20095;-73
2021/01/09 08:10:27;;;;;;;1.15;0.80;;;13.60;65.80;;;;;;5022437;28;20061;-74
2021/01/09 08:13:01;;;;;;;0.43;0.43;;;13.60;65.80;;;;;;5012830;28;20129;-74
2021/01/09 08:15:29;;;;;;;0.68;0.65;;;13.60;65.80;;;;;;5013674;28;20061;-72
2021/01/09 08:17:58;;;;;;;0.70;0.70;;;13.60;65.80;;;;;;5013082;28;20379;-71
2021/01/09 08:20:28;;;;;;;0.63;0.55;;;13.60;65.80;;;;;;5025607;28;20033;-71
2021/01/09 08:22:57;;;;;;;0.43;0.43;;;13.60;65.70;;;;;;5016518;28;20128;-72
2021/01/09 08:25:25;;;;;;;0.50;0.50;;;13.60;65.70;;;;;;5031533;28;20033;-71
2021/01/09 08:27:56;;;;;;;0.63;0.63;;;13.60;65.60;;;;;;5031545;28;20368;-72
2021/01/09 08:30:26;;;;;;;0.77;0.60;;;13.60;65.70;;;;;;5012841;28;20129;-72
2021/01/09 08:33:06;;;;;;;0.77;0.77;;;13.70;65.60;;;;;;5011171;28;20031;-71
2021/01/09 08:35:32;;;;;;;0.63;0.57;;;13.70;65.60;;;;;;5013789;28;20045;-73
2021/01/09 08:38:04;;;;;;;0.88;0.80;;;13.70;65.60;;;;;;5014155;28;20336;-73
2021/01/09 08:40:31;;;;;;;1.15;1.05;;;13.70;65.50;;;;;;5031995;28;20065;-73
2021/01/09 08:43:10;;;;;;;0.50;0.50;;;13.70;65.50;;;;;;5030424;28;20374;-72
2021/01/09 08:45:45;;;;;;;4.25;0.70;;;13.70;65.50;;;;;;4999112;28;20037;-72
2021/01/09 08:48:16;;;;;;;1.23;0.70;;;13.70;65.50;;;;;;5032234;28;20026;-73
2021/01/09 08:50:56;;;;;;;0.50;0.50;;;13.70;65.40;;;;;;5014999;28;20084;-72
2021/01/09 08:53:27;;;;;;;1.13;0.85;;;13.70;65.40;;;;;;5030562;28;20040;-73
2021/01/09 08:56:04;;;;;;;0.70;0.60;;;13.70;65.40;;;;;;5032800;28;20112;-73
2021/01/09 08:58:34;;;;;;;0.98;0.70;;;13.70;65.40;;;;;;5032090;28;20064;-72
2021/01/09 09:01:04;;;;;;;0.60;0.60;;;13.70;65.40;;;;;;5012432;28;20037;-73
2021/01/09 09:03:32;;;;;;;0.50;0.50;;;13.70;65.30;;;;;;5013615;28;20048;-72
2021/01/09 09:06:21;;;;;;;0.60;0.50;;;13.70;65.30;;;;;;5030396;28;20036;-73
2021/01/09 09:08:47;;;;;;;0.90;0.60;;;13.70;65.30;;;;;;5019088;28;20052;-73
2021/01/09 09:11:15;;;;;;;0.85;0.73;;;13.80;65.30;;;;;;5047048;28;20030;-75
2021/01/09 09:13:41;;;;;;;0.80;0.80;;;13.80;65.20;;;;;;5032930;28;20024;-74
2021/01/09 09:16:20;;;;;;;0.82;0.60;;;13.80;65.10;;;;;;5051609;28;20036;-73
2021/01/09 09:18:48;;;;;;;0.75;0.60;;;13.80;65.10;;;;;;5033542;28;20333;-73
2021/01/09 09:21:17;;;;;;;0.85;0.60;;;13.80;65.00;;;;;;5039958;28;20067;-72
2021/01/09 09:23:51;;;;;;;0.82;0.57;;;13.80;65.00;;;;;;5043752;28;20479;-72
2021/01/09 09:26:17;;;;;;;0.63;0.50;;;13.80;65.00;;;;;;5048702;28;20099;-72
2021/01/09 09:28:43;;;;;;;1.63;0.90;;;13.80;65.00;;;;;;5023167;28;20562;-72
2021/01/09 09:31:24;;;;;;;0.63;0.60;;;13.80;64.90;;;;;;5022638;28;20104;-71
2021/01/09 09:34:04;;;;;;;0.60;0.50;;;13.80;64.90;;;;;;5028617;28;21079;-71
2021/01/09 09:36:55;;;;;;;0.93;0.75;;;13.80;64.90;;;;;;5047804;28;20029;-72
2021/01/09 09:39:22;;;;;;;1.17;0.80;;;13.80;65.00;;;;;;5017100;28;20041;-71
2021/01/09 09:42:00;;;;;;;0.73;0.57;;;13.80;64.90;;;;;;5045974;28;20526;-72
2021/01/09 09:44:40;;;;;;;0.70;0.60;;;13.80;64.90;;;;;;5048538;28;20128;-70
2021/01/09 09:47:27;;;;;;;0.60;0.60;;;13.80;64.90;;;;;;5050165;28;20123;-73
2021/01/09 09:49:58;;;;;;;0.80;0.75;;;13.90;64.80;;;;;;5050844;28;20016;-72
2021/01/09 09:52:26;;;;;;;0.60;0.60;;;13.80;64.80;;;;;;5042261;28;20055;-73
2021/01/09 09:55:06;;;;;;;0.75;0.63;;;13.80;64.80;;;;;;5030578;28;20030;-70
2021/01/09 09:57:31;;;;;;;0.88;0.50;;;13.80;64.70;;;;;;5032763;28;20441;-70
2021/01/09 10:00:12;;;;;;;1.00;0.60;;;13.90;64.70;;;;;;5030568;28;20111;-70
2021/01/09 10:02:51;;;;;;;0.75;0.60;;;13.90;64.80;;;;;;5031054;28;20061;-70
2021/01/09 10:05:20;;;;;;;0.50;0.50;;;13.80;64.80;;;;;;5056397;28;20418;-69
2021/01/09 10:07:46;;;;;;;0.40;0.40;;;13.80;64.90;;;;;;5047596;28;20490;-69
2021/01/09 10:10:19;;;;;;;1.33;1.23;;;13.80;64.90;;;;;;5046559;28;20049;-70
2021/01/09 10:12:58;;;;;;;0.75;0.68;;;13.80;64.90;;;;;;5048525;28;20037;-70
2021/01/09 10:15:28;;;;;;;0.77;0.70;;;13.80;65.00;;;;;;5044439;28;20037;-70
2021/01/09 10:18:01;;;;;;;0.50;0.50;;;13.80;65.00;;;;;;5050125;28;20025;-70
2021/01/09 10:20:28;;;;;;;0.73;0.60;;;13.80;65.00;;;;;;5049334;28;20129;-70
2021/01/09 10:22:54;;;;;;;0.68;0.60;;;13.80;65.10;;;;;;5053123;28;20029;-70
2021/01/09 10:25:20;;;;;;;0.68;0.50;;;13.80;65.10;;;;;;5043630;28;20088;-70
2021/01/09 10:27:46;;;;;;;1.08;0.60;;;13.80;65.10;;;;;;5054437;28;20104;-70
2021/01/09 10:30:15;;;;;;;0.80;0.60;;;13.80;65.10;;;;;;5054353;28;20033;-70
2021/01/09 10:32:40;;;;;;;0.90;0.60;;;13.80;65.10;;;;;;5050851;28;20036;-70
2021/01/09 10:35:07;;;;;;;0.90;0.57;;;13.80;65.00;;;;;;5036295;28;20463;-70
2021/01/09 10:37:32;;;;;;;1.13;0.75;;;13.80;65.00;;;;;;5037413;28;20041;-71
2021/01/09 10:39:59;;;;;;;0.57;0.57;;;13.80;65.00;;;;;;5050495;28;20029;-70
2021/01/09 10:42:28;;;;;;;0.90;0.50;;;13.80;65.00;;;;;;5054495;28;20036;-71
2021/01/09 10:44:54;;;;;;;0.60;0.60;;;13.80;65.00;;;;;;5053821;28;20078;-71
2021/01/09 10:47:22;;;;;;;0.80;0.65;;;13.80;64.90;;;;;;5053305;28;20108;-71
2021/01/09 10:49:48;;;;;;;0.40;0.40;;;13.90;64.90;;;;;;5045001;28;20115;-71
2021/01/09 10:52:13;;;;;;;0.45;0.45;;;13.90;64.80;;;;;;5051337;28;20386;-71
2021/01/09 10:54:39;;;;;;;0.90;0.60;;;13.80;64.80;;;;;;5042529;28;20382;-71
2021/01/09 10:57:05;;;;;;;0.50;0.50;;;13.80;64.80;;;;;;5052265;28;20045;-71
2021/01/09 10:59:30;;;;;;;1.00;0.75;;;13.90;64.70;;;;;;5048947;28;20545;-70
2021/01/09 11:01:57;;;;;;;0.60;0.50;;;13.90;64.60;;;;;;5049320;28;20040;-71
2021/01/09 11:04:23;;;;;;;1.08;0.70;;;13.90;64.60;;;;;;5054342;28;20382;-71
2021/01/09 11:06:49;;;;;;;0.93;0.65;;;14.00;64.50;;;;;;5055600;28;20021;-71
2021/01/09 11:09:14;;;;;;;2.30;0.70;;;13.90;64.60;;;;;;5026092;28;20507;-71
2021/01/09 11:11:47;;;;;;;1.40;0.70;;;13.90;64.60;;;;;;5031594;28;20127;-73
2021/01/09 11:14:12;;;;;;;0.60;0.50;;;13.90;64.60;;;;;;5053781;28;20029;-73
2021/01/09 11:16:38;;;;;;;0.70;0.70;;;14.00;64.50;;;;;;5053658;28;20058;-73
2021/01/09 11:19:03;;;;;;;0.75;0.60;;;14.00;64.50;;;;;;5052180;28;20437;-73
2021/01/09 11:21:29;;;;;;;1.08;0.80;;;14.00;64.40;;;;;;5054303;28;20098;-73
2021/01/09 11:23:55;;;;;;;0.80;0.70;;;14.00;64.40;;;;;;5055022;28;20564;-73
2021/01/09 11:26:25;;;;;;;0.63;0.60;;;14.00;64.40;;;;;;5053521;28;20083;-73
2021/01/09 11:28:51;;;;;;;0.68;0.50;;;14.00;64.40;;;;;;5052626;28;20120;-73
2021/01/09 11:31:17;;;;;;;1.00;0.88;;;14.00;64.40;;;;;;5042423;28;20029;-73
2021/01/09 11:33:43;;;;;;;4.35;0.90;;;14.00;64.40;;;;;;5052443;28;20029;-73
2021/01/09 11:36:10;;;;;;;1.58;1.25;;;14.00;64.90;;;;;;5052912;28;20132;-73
2021/01/09 11:38:35;;;;;;;1.30;1.02;;;14.10;64.30;;;;;;5036764;28;20083;-73
2021/01/09 11:41:02;;;;;;;3.72;1.33;;;14.10;64.20;;;;;;5044545;28;20029;-73
2021/01/09 11:43:32;;;;;;;1.10;1.00;;;14.10;64.10;;;;;;5049485;28;20061;-73
2021/01/09 11:45:58;;;;;;;1.75;1.10;;;14.10;64.20;;;;;;5045373;28;20032;-73
2021/01/09 11:48:28;;;;;;;1.50;1.20;;;14.10;64.20;;;;;;5039847;28;20033;-74
2021/01/09 11:50:54;;;;;;;1.52;1.05;;;14.10;64.20;;;;;;5047206;28;20082;-74
2021/01/09 11:53:20;;;;;;;2.05;1.42;;;14.00;64.10;;;;;;5026849;28;20116;-73
2021/01/09 11:55:49;;;;;;;4.30;1.52;;;14.10;64.10;;;;;;5046792;28;20111;-73
2021/01/09 11:58:15;;;;;;;;;;;14.10;64.10;;;;;;5046296;28;20078;-74
2021/01/09 12:00:44;;;;;;;2.42;1.50;;;14.10;64.00;;;;;;5033940;28;20436;-74
2021/01/09 12:03:10;;;;;;;1.55;1.30;;;14.10;63.90;;;;;;5051581;28;20033;-74
2021/01/09 12:05:36;;;;;;;1.60;1.20;;;14.10;63.80;;;;;;5026322;28;20040;-73
2021/01/09 12:08:02;;;;;;;2.17;1.40;;;14.10;63.80;;;;;;5049330;28;20033;-74
2021/01/09 12:10:28;;;;;;;2.30;1.55;;;14.10;63.70;;;;;;5051023;28;20029;-73
2021/01/09 12:12:54;;;;;;;3.55;1.63;;;14.10;63.80;;;;;;5036397;28;20575;-74
2021/01/09 12:15:20;;;;;;;1.65;1.15;;;14.10;63.80;;;;;;5050911;28;20068;-74
2021/01/09 12:17:45;;;;;;;3.15;1.48;;;14.10;63.80;;;;;;5046043;28;20033;-73
2021/01/09 12:20:11;;;;;;;2.20;1.65;;;14.10;63.90;;;;;;5052078;28;20037;-73
2021/01/09 12:22:38;;;;;;;2.63;1.50;;;14.10;63.90;;;;;;5035592;28;20078;-73
2021/01/09 12:25:16;;;;;;;1.67;1.42;;;14.00;63.90;;;;;;5049917;28;20549;-74
2021/01/09 12:27:42;;;;;;;1.98;1.42;;;14.10;63.90;;;;;;5047415;28;20030;-74
2021/01/09 12:30:08;;;;;;;1.40;1.10;;;14.10;63.90;;;;;;5033824;28;20163;-73
2021/01/09 12:32:34;;;;;;;1.85;1.50;;;14.10;63.90;;;;;;5025339;28;20112;-74
2021/01/09 12:35:03;;;;;;;2.65;1.80;;;14.00;63.90;;;;;;5030212;28;20111;-73
2021/01/09 12:37:28;;;;;;;3.28;1.70;;;14.10;63.80;;;;;;5035138;28;20454;-73
2021/01/09 12:39:54;;;;;;;2.25;1.58;;;14.10;63.80;;;;;;5052548;28;20035;-74
2021/01/09 12:42:20;;;;;;;3.17;1.70;;;14.10;63.80;;;;;;5051322;28;20045;-74
2021/01/09 12:44:45;;;;;;;3.15;1.40;;;14.10;63.70;;;;;;5052730;28;20036;-74
2021/01/09 12:47:11;;;;;;;4.45;1.70;;;14.10;63.70;;;;;;5044335;28;20359;-74
2021/01/09 12:49:37;;;;;;;2.75;1.77;;;14.10;63.70;;;;;;5031161;28;20061;-74
2021/01/09 12:52:07;;;;;;;1.67;1.48;;;14.10;63.70;;;;;;5052130;28;20032;-74
2021/01/09 12:54:32;;;;;;;1.92;1.40;;;14.10;63.80;;;;;;5052104;28;20025;-74
2021/01/09 12:56:58;;;;;;;3.08;1.75;;;14.10;63.80;;;;;;5016559;28;20086;-74
2021/01/09 12:59:24;;;;;;;3.00;2.00;;;14.10;63.90;;;;;;5052463;28;20040;-74